createdAt,value
2019-04-11T00:03:25.430Z,5.20
2019-04-11T00:08:32.474Z,4.53
2019-04-11T00:13:39.563Z,4.33
2019-04-11T00:18:47.134Z,4.12
2019-04-11T00:23:54.568Z,5.00
2019-04-11T00:29:01.862Z,3.73
2019-04-11T00:34:10.941Z,3.87
2019-04-11T00:39:19.400Z,5.78
2019-04-11T00:44:27.186Z,4.70
2019-04-11T00:49:34.896Z,3.60
2019-04-11T00:54:42.762Z,3.70
2019-04-11T00:59:50.939Z,4.13
2019-04-11T01:04:59.306Z,4.50
2019-04-11T01:10:07.144Z,4.60
2019-04-11T01:15:16.174Z,16.23
2019-04-11T01:20:23.803Z,8.60
2019-04-11T01:25:31.180Z,6.07
2019-04-11T01:30:45.290Z,4.93
2019-04-11T01:35:53.352Z,4.70
2019-04-11T01:41:00.715Z,4.10
2019-04-11T01:46:07.990Z,3.97
2019-04-11T01:51:15.784Z,3.63
2019-04-11T01:56:25.172Z,3.70
2019-04-11T02:01:41.099Z,4.03
2019-04-11T02:06:48.277Z,3.97
2019-04-11T02:11:56.162Z,3.40
2019-04-11T02:17:03.283Z,3.47
2019-04-11T02:22:28.592Z,3.30
2019-04-11T02:27:36.719Z,3.20
2019-04-11T02:32:45.446Z,3.80
2019-04-11T02:37:52.635Z,3.70
2019-04-11T02:43:00.259Z,3.40
2019-04-11T02:48:09.350Z,3.50
2019-04-11T02:53:16.965Z,3.90
2019-04-11T02:58:25.439Z,3.77
2019-04-11T03:03:34.129Z,3.27
2019-04-11T03:08:43.094Z,3.07
2019-04-11T03:13:54.698Z,2.93
2019-04-11T03:19:17.938Z,3.00
2019-04-11T03:24:13.065Z,2.40
2019-04-11T03:29:20.457Z,3.15
2019-04-11T03:39:57.035Z,3.00
2019-04-11T03:44:50.757Z,3.00
2019-04-11T03:50:01.465Z,2.87
2019-04-11T03:55:06.756Z,3.23
2019-04-11T04:00:15.002Z,2.30
2019-04-11T04:05:21.909Z,2.10
2019-04-11T04:10:32.162Z,2.10
2019-04-11T04:16:15.307Z,2.40
2019-04-11T04:21:31.180Z,2.83
2019-04-11T04:26:39.202Z,2.50
2019-04-11T04:31:46.731Z,2.90
2019-04-11T04:36:55.717Z,2.33
2019-04-11T04:42:08.886Z,2.53
2019-04-11T04:47:21.077Z,2.25
2019-04-11T04:52:21.466Z,2.60
2019-04-11T04:57:29.717Z,2.90
2019-04-11T05:02:39.802Z,2.60
2019-04-11T05:07:47.567Z,2.37
2019-04-11T05:12:55.051Z,2.20
2019-04-11T05:18:02.097Z,2.58
2019-04-11T05:23:09.369Z,2.47
2019-04-11T05:28:16.307Z,2.47
2019-04-11T05:33:23.329Z,2.52
2019-04-11T05:38:30.392Z,2.23
2019-04-11T05:43:39.818Z,2.30
2019-04-11T05:49:05.337Z,2.60
2019-04-11T05:54:14.090Z,2.60
2019-04-11T05:59:23.881Z,2.63
2019-04-11T06:04:36.940Z,3.17
2019-04-11T06:09:46.440Z,2.80
2019-04-11T06:15:15.764Z,2.33
2019-04-11T06:20:37.803Z,1.92
2019-04-11T06:25:53.386Z,2.17
2019-04-11T06:31:30.252Z,1.90
2019-04-11T06:36:57.135Z,2.33
2019-04-11T06:42:25.604Z,2.00
2019-04-11T06:47:56.957Z,2.00
2019-04-11T06:53:04.473Z,2.45
2019-04-11T06:58:15.600Z,2.43
2019-04-11T07:03:29.261Z,2.30
2019-04-11T07:08:42.700Z,2.37
2019-04-11T07:14:02.469Z,1.93
2019-04-11T07:19:45.918Z,2.08
2019-04-11T07:25:12.453Z,2.07
2019-04-11T07:30:39.561Z,2.20
2019-04-11T07:36:14.695Z,3.57
2019-04-11T07:41:45.454Z,2.42
2019-04-11T07:47:18.671Z,2.27
2019-04-11T07:52:21.115Z,2.43
2019-04-11T07:57:34.188Z,2.50
2019-04-11T08:03:03.997Z,2.43
2019-04-11T08:08:34.579Z,2.30
2019-04-11T08:14:02.211Z,2.13
2019-04-11T08:19:27.420Z,2.63
2019-04-11T08:24:40.618Z,2.40
2019-04-11T08:29:50.147Z,2.10
2019-04-11T08:35:26.181Z,2.80
2019-04-11T08:40:37.750Z,2.13
2019-04-11T08:45:52.582Z,2.33
2019-04-11T08:51:04.936Z,3.37
2019-04-11T08:56:14.697Z,4.20
2019-04-11T09:01:22.242Z,3.20
2019-04-11T09:06:34.843Z,3.37
2019-04-11T09:11:44.829Z,1.87
2019-04-11T09:17:12.317Z,2.00
2019-04-11T09:22:47.469Z,2.02
2019-04-11T09:28:31.953Z,2.47
2019-04-11T09:33:58.001Z,2.30
2019-04-11T09:39:15.067Z,2.67
2019-04-11T09:44:22.848Z,3.20
2019-04-11T09:49:39.686Z,2.40
2019-04-11T09:55:01.185Z,2.70
2019-04-11T10:00:30.408Z,2.40
2019-04-11T10:06:12.730Z,2.90
2019-04-11T10:11:55.088Z,3.50
2019-04-11T10:17:22.626Z,2.53
2019-04-11T10:22:48.059Z,2.60
2019-04-11T10:28:29.866Z,2.23
2019-04-11T10:33:59.522Z,2.23
2019-04-11T10:39:35.429Z,2.90
2019-04-11T10:45:07.881Z,2.80
2019-04-11T10:50:49.031Z,2.87
2019-04-11T10:56:18.233Z,2.37
2019-04-11T11:01:46.328Z,2.40
2019-04-11T11:07:00.186Z,2.40
2019-04-11T11:12:25.400Z,2.83
2019-04-11T11:18:20.567Z,2.90
2019-04-11T11:23:20.355Z,2.50
2019-04-11T11:28:30.058Z,1.90
2019-04-11T11:33:38.575Z,3.40
2019-04-11T11:38:54.731Z,2.43
2019-04-11T11:44:03.487Z,2.70
2019-04-11T11:49:32.441Z,2.47
2019-04-11T11:54:29.440Z,1.80
2019-04-11T12:00:01.392Z,1.47
2019-04-11T12:05:30.694Z,1.77
2019-04-11T12:10:42.055Z,2.03
2019-04-11T12:15:59.499Z,1.62
2019-04-11T12:21:09.418Z,2.33
2019-04-11T12:26:18.053Z,2.20
2019-04-11T12:31:25.970Z,4.53
2019-04-11T12:36:44.709Z,2.17
2019-04-11T12:42:00.231Z,1.90
2019-04-11T12:47:24.911Z,2.10
2019-04-11T12:52:38.719Z,2.42
2019-04-11T12:58:03.304Z,4.30
2019-04-11T13:03:46.895Z,2.87
2019-04-11T13:09:11.533Z,3.63
2019-04-11T13:14:26.997Z,2.37
2019-04-11T13:20:05.304Z,2.17
2019-04-11T13:25:34.544Z,2.00
2019-04-11T13:31:00.619Z,2.40
2019-04-11T13:36:25.223Z,2.20
2019-04-11T13:41:44.886Z,2.27
2019-04-11T13:47:16.848Z,2.50
2019-04-11T13:52:43.013Z,2.30
2019-04-11T13:58:11.691Z,2.20
2019-04-11T14:03:49.747Z,2.10
2019-04-11T14:09:13.476Z,1.90
2019-04-11T14:14:39.465Z,1.90
2019-04-11T14:20:05.524Z,2.50
2019-04-11T14:25:40.696Z,2.43
2019-04-11T14:31:14.665Z,2.50
2019-04-11T14:36:39.523Z,4.60
2019-04-11T14:42:17.781Z,2.73
2019-04-11T14:47:49.797Z,2.37
2019-04-11T14:53:16.735Z,3.03
2019-04-11T14:58:48.426Z,2.30
2019-04-11T15:04:29.511Z,2.50
2019-04-11T15:09:48.199Z,3.30
2019-04-11T15:15:23.903Z,5.90
2019-04-11T15:20:55.318Z,2.80
2019-04-11T15:26:22.390Z,2.27
2019-04-11T15:32:00.549Z,5.60
2019-04-11T15:37:25.871Z,6.03
2019-04-11T15:42:50.513Z,4.43
2019-04-11T15:48:17.810Z,2.87
2019-04-11T15:53:34.799Z,3.13
2019-04-11T15:58:46.699Z,3.50
2019-04-11T16:03:58.401Z,3.53
2019-04-11T16:09:11.932Z,2.90
2019-04-11T16:14:39.770Z,3.12
2019-04-11T16:20:03.215Z,3.50
2019-04-11T16:25:12.372Z,3.40
2019-04-11T16:30:24.380Z,4.00
2019-04-11T16:35:40.836Z,4.00
2019-04-11T16:41:12.579Z,4.10
2019-04-11T16:46:38.528Z,3.70
2019-04-11T16:51:45.703Z,3.43
2019-04-11T16:56:52.868Z,3.00
2019-04-11T17:02:00.010Z,2.70
2019-04-11T17:07:30.079Z,4.00
2019-04-11T17:12:37.222Z,3.50
2019-04-11T17:17:44.392Z,6.10
2019-04-11T17:22:52.444Z,4.30
2019-04-11T17:27:59.604Z,5.03
2019-04-11T17:33:06.755Z,3.77
2019-04-11T17:38:13.943Z,3.90
2019-04-11T17:43:21.159Z,3.70
2019-04-11T17:48:28.307Z,3.70
2019-04-11T17:53:36.029Z,3.90
2019-04-11T17:58:43.382Z,3.30
2019-04-11T18:03:50.779Z,4.10
2019-04-11T18:08:57.821Z,4.67
2019-04-11T18:14:05.701Z,4.77
2019-04-11T18:19:12.637Z,5.12
2019-04-11T18:24:20.411Z,5.60
2019-04-11T18:29:27.790Z,5.37
2019-04-11T18:34:34.907Z,5.00
2019-04-11T18:39:41.991Z,6.53
2019-04-11T18:44:49.170Z,5.20
2019-04-11T18:49:56.828Z,7.17
2019-04-11T18:55:04.728Z,8.63
2019-04-11T19:00:15.783Z,6.70
2019-04-11T19:05:28.936Z,4.70
2019-04-11T19:10:33.068Z,4.40
2019-04-11T19:15:40.119Z,4.57
2019-04-11T19:20:50.121Z,4.23
2019-04-11T19:25:55.758Z,5.67
2019-04-11T19:31:02.811Z,5.10
2019-04-11T19:36:12.370Z,5.53
2019-04-11T19:41:18.799Z,5.37
2019-04-11T19:46:25.966Z,5.40
2019-04-11T19:51:33.151Z,5.27
2019-04-11T19:57:01.881Z,4.80
2019-04-11T20:02:10.167Z,4.97
2019-04-11T20:07:18.226Z,4.40
2019-04-11T20:12:25.306Z,4.87
2019-04-11T20:17:43.758Z,4.47
2019-04-11T20:22:41.495Z,4.57
2019-04-11T20:27:50.670Z,4.67
2019-04-11T20:32:57.167Z,4.67
2019-04-11T20:38:04.721Z,5.00
2019-04-11T20:43:11.926Z,6.17
2019-04-11T20:48:20.553Z,5.70
2019-04-11T20:53:27.618Z,5.53
2019-04-11T20:58:34.754Z,5.77
2019-04-11T21:03:42.328Z,4.83
2019-04-11T21:08:49.362Z,5.30
2019-04-11T21:13:56.425Z,5.03
2019-04-11T21:19:03.598Z,4.80
2019-04-11T21:24:10.899Z,5.33
2019-04-11T21:29:18.051Z,9.80
2019-04-11T21:34:25.244Z,5.90
2019-04-11T21:39:32.298Z,6.40
2019-04-11T21:44:39.511Z,5.90
2019-04-11T21:49:46.667Z,5.60
2019-04-11T21:54:53.599Z,5.40
2019-04-11T22:00:01.583Z,5.83
2019-04-11T22:05:11.998Z,6.72
2019-04-11T22:10:18.973Z,7.87
2019-04-11T22:15:26.040Z,7.93
2019-04-11T22:20:33.094Z,7.70
2019-04-11T22:25:41.169Z,7.60
2019-04-11T22:30:48.833Z,6.97
2019-04-11T22:36:07.799Z,6.83
2019-04-11T22:41:14.838Z,6.27
2019-04-11T22:46:22.002Z,6.67
2019-04-11T22:51:29.038Z,6.93
2019-04-11T22:56:36.193Z,6.50
2019-04-11T23:01:46.722Z,7.50
2019-04-11T23:06:52.877Z,6.47
2019-04-11T23:12:02.102Z,6.47
2019-04-11T23:17:09.216Z,6.07
2019-04-11T23:22:16.430Z,6.27
2019-04-11T23:27:23.514Z,5.90
2019-04-11T23:32:32.010Z,6.60
2019-04-11T23:37:52.035Z,5.93
2019-04-11T23:42:59.197Z,5.93
2019-04-11T23:48:06.272Z,5.67
2019-04-11T23:53:13.336Z,5.83
2019-04-11T23:58:20.400Z,6.07
